Time;durP1;ratioP1;P1;durP2;ratioP2;P2;SDS_P1;SDS_P2;PMS_P1;PMS_P2;Temp;Humidity;BMP_temperature;BMP_pressure;BME280_temperature;BME280_humidity;BME280_pressure;Samples;Min_cycle;Max_cycle;Signal;HPM_P1;HPM_P2
2023/07/04 00:01:31;;;;;;;10.10;4.70;;;;;;;13.14;69.21;100215.24;105556;1257;83234;-48
2023/07/04 00:04:00;;;;;;;8.30;4.00;;;;;;;13.10;69.26;100211.38;105476;1253;73945;-47
2023/07/04 00:06:29;;;;;;;15.10;4.60;;;;;;;13.07;69.57;100211.04;105473;1254;70010;-47
2023/07/04 00:08:57;;;;;;;10.40;4.60;;;;;;;13.04;69.46;100208.71;105584;1254;70312;-48
2023/07/04 00:11:27;;;;;;;11.40;4.30;;;;;;;13.01;69.78;100207.98;105512;1254;73999;-47
2023/07/04 00:13:55;;;;;;;11.20;4.40;;;;;;;12.97;69.79;100205.90;105521;1254;83741;-47
2023/07/04 00:16:24;;;;;;;10.30;4.80;;;;;;;12.93;69.94;100205.56;105499;1254;73521;-48
2023/07/04 00:18:52;;;;;;;12.70;4.60;;;;;;;12.89;69.82;100210.02;105476;1257;70004;-47
2023/07/04 00:21:21;;;;;;;10.60;5.10;;;;;;;12.86;70.01;100210.34;105450;1254;69879;-47
2023/07/04 00:23:52;;;;;;;8.50;4.40;;;;;;;12.81;70.27;100209.55;105572;1254;71998;-46
2023/07/04 00:26:23;;;;;;;10.50;5.20;;;;;;;12.79;70.46;100209.78;105510;1257;82347;-47
2023/07/04 00:28:53;;;;;;;9.80;4.90;;;;;;;12.77;70.79;100206.71;105464;1254;73889;-47
2023/07/04 00:31:23;;;;;;;12.20;5.00;;;;;;;12.83;71.23;100206.26;105454;1257;69991;-47
2023/07/04 00:33:53;;;;;;;9.20;4.20;;;;;;;12.95;71.59;100206.73;105478;1257;69995;-48
2023/07/04 00:36:22;;;;;;;9.50;4.90;;;;;;;13.04;71.55;100205.19;105511;1254;73669;-48
2023/07/04 00:38:56;;;;;;;11.30;5.60;;;;;;;13.01;71.28;100206.40;105525;1257;83402;-48
2023/07/04 00:41:27;;;;;;;10.60;4.60;;;;;;;12.96;70.94;100206.84;105521;1254;73699;-47
2023/07/04 00:44:11;;;;;;;;;;;;;;;12.87;71.06;100208.14;105267;1259;70114;-47
2023/07/04 00:46:43;;;;;;;7.00;4.10;;;;;;;12.84;71.48;100206.75;105515;1253;69938;-48
2023/07/04 00:49:22;;;;;;;13.00;4.30;;;;;;;12.83;71.46;100205.92;105391;1260;73226;-47
2023/07/04 00:52:04;;;;;;;9.70;4.20;;;;;;;12.78;71.41;100206.34;105483;1257;83756;-48
2023/07/04 00:54:52;;;;;;;11.30;4.80;;;;;;;12.69;71.32;100206.93;105479;1254;73461;-48
2023/07/04 00:57:25;;;;;;;11.50;4.80;;;;;;;12.61;71.34;100208.21;105457;1254;69987;-47
2023/07/04 01:00:00;;;;;;;7.70;4.10;;;;;;;12.56;71.39;100207.73;105505;1254;69954;-47
2023/07/04 01:02:31;;;;;;;10.90;4.20;;;;;;;12.50;71.54;100206.98;105431;1260;74367;-47
2023/07/04 01:05:03;;;;;;;8.90;3.80;;;;;;;12.47;71.70;100205.73;105501;1253;83309;-47
2023/07/04 01:07:40;;;;;;;11.60;4.40;;;;;;;12.40;71.83;100205.02;105487;1257;73732;-47
2023/07/04 01:10:30;;;;;;;8.50;3.90;;;;;;;12.36;72.04;100204.83;105478;1256;70271;-49
2023/07/04 01:13:00;;;;;;;10.70;4.20;;;;;;;12.32;72.19;100204.19;105451;1257;70002;-49
2023/07/04 01:15:29;;;;;;;6.90;4.10;;;;;;;12.29;72.51;100209.91;105504;1254;72157;-47
2023/07/04 01:17:59;;;;;;;8.00;4.30;;;;;;;12.28;72.55;100208.55;105405;1254;83771;-47
2023/07/04 01:20:28;;;;;;;10.30;4.80;;;;;;;12.32;72.69;100205.59;105532;1254;74092;-47
2023/07/04 01:23:25;;;;;;;11.50;4.40;;;;;;;12.35;72.71;100202.30;105380;1254;69988;-47
2023/07/04 01:26:14;;;;;;;8.50;4.00;;;;;;;12.33;72.75;100206.77;105494;1254;69918;-47
2023/07/04 01:28:42;;;;;;;9.80;4.40;;;;;;;12.26;72.95;100202.52;105397;1257;74200;-47
2023/07/04 01:31:11;;;;;;;12.20;4.50;;;;;;;12.22;72.90;100205.35;105378;1259;82660;-48
2023/07/04 01:33:40;;;;;;;10.20;4.60;;;;;;;12.19;73.14;100201.10;105499;1254;72831;-47
2023/07/04 01:36:11;;;;;;;10.10;4.60;;;;;;;12.20;73.44;100203.15;105496;1253;69980;-46
2023/07/04 01:38:41;;;;;;;12.40;4.70;;;;;;;12.24;73.87;100204.89;105435;1254;69875;-47
2023/07/04 01:41:10;;;;;;;10.30;4.10;;;;;;;12.32;74.10;100199.29;105372;1259;74296;-47
2023/07/04 01:43:39;;;;;;;11.60;4.60;;;;;;;12.29;73.71;100198.19;105479;1254;83968;-48
2023/07/04 01:46:07;;;;;;;7.60;4.90;;;;;;;12.23;74.01;100199.86;105533;1257;72329;-46
2023/07/04 01:48:37;;;;;;;8.60;4.20;;;;;;;12.22;73.80;100202.53;105440;1257;69873;-48
2023/07/04 01:51:06;;;;;;;;;;;;;;;12.16;73.69;100201.41;105504;1254;69878;-47
2023/07/04 01:53:34;;;;;;;8.60;4.20;;;;;;;12.11;73.93;100201.15;105434;1254;73030;-47
2023/07/04 01:56:03;;;;;;;7.80;4.40;;;;;;;12.05;73.96;100202.43;105484;1254;83782;-47
2023/07/04 01:58:31;;;;;;;9.70;4.20;;;;;;;12.04;74.07;100202.84;105352;1258;73741;-47
2023/07/04 02:00:59;;;;;;;9.50;4.40;;;;;;;12.01;74.24;100205.98;105409;1254;69899;-47
2023/07/04 02:03:27;;;;;;;11.30;4.20;;;;;;;12.02;74.45;100208.04;105436;1257;69987;-46
2023/07/04 02:05:57;;;;;;;14.30;5.80;;;;;;;12.03;74.92;100210.75;105448;1254;73297;-47
2023/07/04 02:08:26;;;;;;;;;;;;;;;12.09;75.30;100214.88;105532;1254;81627;-47
2023/07/04 02:10:54;;;;;;;7.70;4.80;;;;;;;12.16;75.17;100209.14;105415;1254;73970;-46
2023/07/04 02:13:23;;;;;;;11.10;4.80;;;;;;;12.17;75.23;100211.36;105395;1254;70001;-48
2023/07/04 02:15:51;;;;;;;10.30;5.00;;;;;;;12.14;75.07;100209.57;105375;1252;69949;-48
2023/07/04 02:18:21;;;;;;;10.10;4.60;;;;;;;12.09;74.98;100207.00;105456;1254;73112;-47
2023/07/04 02:20:49;;;;;;;10.60;5.50;;;;;;;12.11;75.44;100204.65;105521;1254;83897;-47
2023/07/04 02:23:18;;;;;;;8.80;5.30;;;;;;;12.14;75.58;100205.89;105412;1259;73690;-49
2023/07/04 02:25:48;;;;;;;12.70;5.20;;;;;;;12.16;75.70;100208.95;105532;1257;70009;-47
2023/07/04 02:28:17;;;;;;;10.10;5.10;;;;;;;12.15;75.63;100209.53;105504;1257;69916;-49
2023/07/04 02:30:55;;;;;;;10.80;5.20;;;;;;;12.14;75.44;100206.56;105425;1257;74269;-47
2023/07/04 02:33:24;;;;;;;12.60;5.40;;;;;;;12.12;75.48;100207.90;105408;1259;83532;-48
2023/07/04 02:35:53;;;;;;;9.10;5.30;;;;;;;12.09;75.53;100208.59;105395;1259;73677;-48
2023/07/04 02:38:21;;;;;;;9.70;5.00;;;;;;;12.05;75.94;100207.33;105470;1257;70021;-48
2023/07/04 02:40:51;;;;;;;10.70;4.90;;;;;;;12.11;75.94;100209.70;105508;1257;70012;-47
2023/07/04 02:43:20;;;;;;;9.10;4.80;;;;;;;12.14;75.86;100212.71;105384;1258;72051;-47
2023/07/04 02:45:49;;;;;;;8.00;4.50;;;;;;;12.14;76.03;100209.39;105535;1257;83062;-48
2023/07/04 02:48:19;;;;;;;10.60;6.10;;;;;;;12.11;75.76;100210.08;105505;1253;73657;-49
2023/07/04 02:50:48;;;;;;;;;;;;;;;12.12;76.25;100202.83;105415;1253;69908;-49
2023/07/04 02:53:21;;;;;;;11.10;5.30;;;;;;;12.18;76.67;100206.38;105497;1254;69979;-49
2023/07/04 02:55:51;;;;;;;10.90;5.20;;;;;;;12.21;76.51;100208.36;105531;1257;74046;-48
2023/07/04 02:58:21;;;;;;;13.90;6.00;;;;;;;12.22;76.90;100202.54;105573;1254;83504;-48
2023/07/04 03:00:50;;;;;;;19.50;6.80;;;;;;;12.30;77.26;100199.54;105513;1254;73953;-48
2023/07/04 03:03:22;;;;;;;14.50;6.00;;;;;;;12.40;77.34;100199.06;105486;1257;69935;-47
2023/07/04 03:05:51;;;;;;;10.60;5.60;;;;;;;12.46;77.35;100199.30;105495;1257;69926;-48
2023/07/04 03:08:19;;;;;;;13.90;6.50;;;;;;;12.48;77.22;100198.11;105391;1254;74290;-49
2023/07/04 03:10:48;;;;;;;10.50;5.50;;;;;;;12.52;77.15;100199.20;105495;1254;83800;-48
2023/07/04 03:13:18;;;;;;;14.00;6.00;;;;;;;12.56;77.38;100196.33;105445;1254;73825;-49
2023/07/04 03:15:47;;;;;;;15.60;6.00;;;;;;;12.60;77.40;100195.98;105520;1257;70018;-49
2023/07/04 03:18:15;;;;;;;13.40;6.20;;;;;;;12.63;77.55;100197.92;105470;1259;69930;-48
2023/07/04 03:20:44;;;;;;;13.60;6.30;;;;;;;12.69;77.58;100198.33;105473;1257;74340;-48
2023/07/04 03:23:12;;;;;;;10.80;5.50;;;;;;;12.71;77.40;100193.34;105414;1256;83538;-48
2023/07/04 03:25:41;;;;;;;12.70;6.50;;;;;;;12.74;77.30;100199.70;105490;1257;73409;-47
2023/07/04 03:28:10;;;;;;;13.20;6.20;;;;;;;12.76;77.31;100196.79;105515;1254;69836;-48
2023/07/04 03:30:38;;;;;;;11.80;5.80;;;;;;;12.78;77.46;100196.85;105471;1253;70005;-48
2023/07/04 03:33:10;;;;;;;15.20;6.10;;;;;;;12.80;77.20;100205.15;105505;1254;74191;-48
2023/07/04 03:35:38;;;;;;;11.40;7.20;;;;;;;12.80;77.22;100206.05;105466;1254;83514;-49
2023/07/04 03:38:26;;;;;;;13.00;6.30;;;;;;;12.80;77.25;100206.23;105448;1254;72906;-47
2023/07/04 03:40:54;;;;;;;11.90;5.60;;;;;;;12.82;77.29;100205.98;105372;1254;70771;-48
2023/07/04 03:43:24;;;;;;;14.80;6.10;;;;;;;12.86;77.43;100206.64;105370;1254;69934;-48
2023/07/04 03:45:53;;;;;;;14.00;6.30;;;;;;;12.89;77.35;100202.82;105544;1254;73236;-48
2023/07/04 03:48:22;;;;;;;13.60;6.10;;;;;;;12.90;77.29;100204.50;105483;1254;83470;-48
2023/07/04 03:50:51;;;;;;;13.20;5.50;;;;;;;12.92;77.54;100208.41;105493;1253;72683;-48
2023/07/04 03:53:20;;;;;;;10.20;6.00;;;;;;;12.96;77.60;100209.30;105433;1254;69804;-48
2023/07/04 03:55:49;;;;;;;11.30;5.70;;;;;;;12.99;77.44;100209.51;105497;1254;69992;-48
2023/07/04 03:58:18;;;;;;;10.90;5.50;;;;;;;13.04;77.60;100211.68;105421;1254;74297;-51
2023/07/04 04:00:47;;;;;;;15.00;6.30;;;;;;;13.10;77.39;100210.70;105376;1259;83653;-48
2023/07/04 04:03:16;;;;;;;16.50;5.90;;;;;;;13.14;77.35;100210.33;105518;1257;73760;-48
2023/07/04 04:05:45;;;;;;;12.60;6.50;;;;;;;13.18;77.28;100211.00;105524;1254;69903;-51
2023/07/04 04:08:13;;;;;;;11.50;5.40;;;;;;;13.23;77.47;100211.64;105451;1257;70200;-47
2023/07/04 04:10:42;;;;;;;10.40;5.20;;;;;;;13.30;77.57;100213.77;105506;1254;74452;-48
2023/07/04 04:13:11;;;;;;;13.00;5.50;;;;;;;13.35;77.31;100212.42;105533;1257;83669;-47
2023/07/04 04:15:39;;;;;;;14.20;5.80;;;;;;;13.41;77.11;100214.26;105519;1254;72878;-48
2023/07/04 04:18:07;;;;;;;13.80;5.90;;;;;;;13.44;77.16;100216.23;105460;1254;69969;-49
2023/07/04 04:20:35;;;;;;;9.00;5.40;;;;;;;13.49;77.19;100216.45;105471;1257;69845;-48
2023/07/04 04:23:04;;;;;;;10.50;5.10;;;;;;;13.54;76.97;100217.77;105499;1253;73022;-48
2023/07/04 04:25:38;;;;;;;14.20;5.00;;;;;;;13.59;77.05;100218.37;105483;1254;83575;-47
2023/07/04 04:28:08;;;;;;;13.80;5.50;;;;;;;13.67;77.09;100218.69;105477;1254;72620;-48
2023/07/04 04:30:36;;;;;;;8.80;4.80;;;;;;;13.75;77.20;100223.69;105479;1254;69976;-49
2023/07/04 04:33:05;;;;;;;11.70;5.60;;;;;;;13.82;76.69;100225.61;105506;1257;69915;-48
2023/07/04 04:35:33;;;;;;;11.70;5.10;;;;;;;13.87;76.66;100224.30;105522;1254;74023;-49
2023/07/04 04:38:02;;;;;;;11.10;5.50;;;;;;;13.91;76.58;100230.20;105507;1254;83435;-48
2023/07/04 04:40:32;;;;;;;12.60;5.30;;;;;;;13.96;76.45;100227.84;105450;1254;72813;-48
2023/07/04 04:43:02;;;;;;;10.50;4.90;;;;;;;14.02;76.51;100229.62;105527;1256;70009;-47
2023/07/04 04:45:30;;;;;;;10.80;5.00;;;;;;;14.07;76.17;100230.06;105768;1252;70300;-46
2023/07/04 04:48:01;;;;;;;12.10;5.50;;;;;;;14.12;76.17;100229.30;105636;1256;72836;-46
2023/07/04 04:50:30;;;;;;;11.50;5.80;;;;;;;14.18;76.09;100229.27;105603;1254;83415;-49
2023/07/04 04:52:59;;;;;;;10.80;5.50;;;;;;;14.25;75.98;100230.11;105596;1253;73486;-47
2023/07/04 04:55:28;;;;;;;14.70;5.20;;;;;;;14.32;75.77;100228.36;105791;1253;69996;-47
2023/07/04 04:57:56;;;;;;;13.10;4.80;;;;;;;14.40;75.64;100229.87;105695;1253;69891;-47
2023/07/04 05:00:24;;;;;;;12.80;5.30;;;;;;;14.46;75.22;100230.20;105577;1257;73414;-47
2023/07/04 05:02:56;;;;;;;11.60;4.60;;;;;;;14.53;75.15;100230.52;105591;1254;82366;-51
2023/07/04 05:05:24;;;;;;;11.20;4.80;;;;;;;14.62;75.10;100230.59;105668;1254;72945;-47
2023/07/04 05:07:53;;;;;;;9.20;4.60;;;;;;;14.69;74.88;100235.42;105581;1256;70069;-47
2023/07/04 05:10:21;;;;;;;10.80;5.10;;;;;;;14.78;74.69;100235.29;105708;1254;69963;-47
2023/07/04 05:12:50;;;;;;;10.50;4.90;;;;;;;14.86;74.63;100233.78;105674;1256;74093;-46
2023/07/04 05:15:19;;;;;;;12.10;4.90;;;;;;;14.92;74.33;100230.92;105726;1257;83742;-47
2023/07/04 05:17:47;;;;;;;11.10;4.60;;;;;;;15.00;74.25;100231.38;105742;1254;73897;-46
2023/07/04 05:20:22;;;;;;;9.70;4.30;;;;;;;15.07;74.07;100226.57;105665;1254;69978;-48
2023/07/04 05:22:56;;;;;;;11.20;5.20;;;;;;;15.15;73.94;100229.27;105709;1256;70333;-47
2023/07/04 05:25:24;;;;;;;11.40;4.90;;;;;;;15.22;73.58;100227.63;105782;1253;73036;-47
2023/07/04 05:27:53;;;;;;;12.70;5.20;;;;;;;15.28;73.52;100228.50;105738;1256;83712;-46
2023/07/04 05:30:24;;;;;;;11.80;4.70;;;;;;;15.34;73.38;100222.86;105904;1254;73570;-47
2023/07/04 05:32:53;;;;;;;8.60;4.10;;;;;;;15.42;73.26;100228.21;105720;1252;69949;-45
2023/07/04 05:35:21;;;;;;;8.20;4.90;;;;;;;15.51;73.22;100225.39;105718;1254;70021;-47
2023/07/04 05:37:49;;;;;;;9.30;4.50;;;;;;;15.59;72.78;100225.59;105673;1257;72734;-49
2023/07/04 05:40:18;;;;;;;13.20;4.20;;;;;;;15.68;72.84;100227.17;105593;1256;83206;-46
2023/07/04 05:42:47;;;;;;;11.40;4.90;;;;;;;15.77;72.58;100227.35;105725;1256;73622;-46
2023/07/04 05:45:15;;;;;;;13.60;4.80;;;;;;;15.86;72.40;100226.77;105713;1254;70032;-47
2023/07/04 05:47:44;;;;;;;13.40;4.80;;;;;;;15.96;72.12;100230.79;105820;1256;69925;-46
2023/07/04 05:50:12;;;;;;;9.10;4.30;;;;;;;16.05;71.93;100235.48;105629;1254;74204;-46
2023/07/04 05:52:40;;;;;;;11.60;4.30;;;;;;;16.15;71.76;100235.55;105557;1256;83282;-47
2023/07/04 05:55:08;;;;;;;10.70;4.30;;;;;;;16.28;71.58;100240.77;105570;1255;72909;-47
2023/07/04 05:57:37;;;;;;;10.60;4.30;;;;;;;16.39;71.42;100241.64;105772;1257;69905;-47
2023/07/04 06:00:06;;;;;;;12.00;4.20;;;;;;;16.52;71.43;100246.82;105597;1256;69943;-47
2023/07/04 06:02:40;;;;;;;8.30;4.40;;;;;;;16.63;71.13;100238.65;105757;1254;74055;-47
2023/07/04 06:05:08;;;;;;;14.30;4.20;;;;;;;16.75;71.17;100240.73;105778;1256;83525;-47
2023/07/04 06:07:37;;;;;;;10.70;4.00;;;;;;;16.86;70.98;100240.75;105662;1254;73384;-47
2023/07/04 06:10:06;;;;;;;11.10;4.40;;;;;;;16.96;70.66;100244.48;105645;1253;69913;-46
2023/07/04 06:12:34;;;;;;;11.20;4.30;;;;;;;17.07;70.69;100242.34;105674;1257;70078;-46
2023/07/04 06:15:04;;;;;;;11.10;4.10;;;;;;;17.18;70.44;100240.75;105677;1254;74129;-46
2023/07/04 06:17:32;;;;;;;12.80;4.40;;;;;;;17.26;70.06;100243.19;105785;1254;83299;-48
2023/07/04 06:20:00;;;;;;;10.90;4.60;;;;;;;17.35;69.88;100243.84;105617;1253;72693;-47
2023/07/04 06:22:29;;;;;;;8.00;3.50;;;;;;;17.45;69.76;100247.05;105629;1257;69913;-46
2023/07/04 06:25:00;;;;;;;7.00;4.20;;;;;;;17.55;69.56;100249.89;105500;1259;69986;-46
2023/07/04 06:27:29;;;;;;;10.70;4.40;;;;;;;17.66;69.39;100250.40;105702;1253;73722;-48
2023/07/04 06:29:57;;;;;;;7.30;4.10;;;;;;;17.76;69.26;100252.35;105412;1254;82660;-47
2023/07/04 06:32:25;;;;;;;10.80;4.50;;;;;;;17.87;69.08;100255.51;105540;1254;73679;-47
2023/07/04 06:34:54;;;;;;;9.70;3.50;;;;;;;17.97;68.94;100256.05;105513;1254;69950;-47
2023/07/04 06:37:22;;;;;;;9.90;3.70;;;;;;;18.08;68.87;100256.31;105532;1254;70628;-48
2023/07/04 06:39:50;;;;;;;6.50;3.60;;;;;;;18.21;68.95;100259.65;105618;1254;73751;-47
2023/07/04 06:42:19;;;;;;;7.30;3.60;;;;;;;18.35;68.47;100260.42;105580;1256;83312;-46
2023/07/04 06:44:49;;;;;;;8.60;3.40;;;;;;;18.49;68.15;100264.02;105585;1252;73768;-46
2023/07/04 06:47:17;;;;;;;5.60;3.50;;;;;;;18.65;67.87;100263.20;105562;1252;69931;-47
2023/07/04 06:49:46;;;;;;;8.10;3.50;;;;;;;18.83;67.48;100256.05;105595;1256;70030;-47
2023/07/04 06:52:14;;;;;;;5.00;2.90;;;;;;;19.02;67.37;100262.45;105571;1256;74077;-47
2023/07/04 06:54:43;;;;;;;6.60;3.30;;;;;;;19.17;66.68;100264.71;105604;1257;83291;-47
2023/07/04 06:57:11;;;;;;;9.10;3.80;;;;;;;19.30;66.19;100262.29;105578;1254;73648;-47
2023/07/04 06:59:40;;;;;;;10.30;3.70;;;;;;;19.44;65.62;100263.52;105527;1256;70152;-47
2023/07/04 07:02:08;;;;;;;5.20;3.00;;;;;;;19.58;65.02;100259.48;105584;1252;69922;-47
2023/07/04 07:04:37;;;;;;;7.30;3.50;;;;;;;19.72;64.40;100260.75;105589;1254;74055;-47
2023/07/04 07:07:08;;;;;;;12.80;3.80;;;;;;;19.82;63.92;100264.34;105576;1254;83278;-46
2023/07/04 07:09:40;;;;;;;6.10;3.80;;;;;;;19.96;63.50;100263.30;105538;1254;73642;-47
2023/07/04 07:12:10;;;;;;;9.20;3.60;;;;;;;20.05;62.85;100266.30;105568;1252;69978;-47
2023/07/04 07:14:38;;;;;;;12.00;3.70;;;;;;;20.13;62.30;100266.41;105596;1256;69973;-48
2023/07/04 07:17:07;;;;;;;6.20;3.70;;;;;;;20.19;61.77;100269.07;105602;1255;74249;-47
2023/07/04 07:19:36;;;;;;;7.70;4.00;;;;;;;20.27;61.68;100268.27;105597;1257;83769;-47
2023/07/04 07:22:07;;;;;;;7.90;4.00;;;;;;;20.36;61.35;100271.48;105564;1254;74097;-47
2023/07/04 07:24:36;;;;;;;12.60;3.80;;;;;;;20.45;61.16;100274.27;105569;1256;69886;-47
2023/07/04 07:27:07;;;;;;;10.60;3.90;;;;;;;20.55;60.92;100271.38;105619;1254;70204;-47
2023/07/04 07:29:35;;;;;;;9.00;4.00;;;;;;;20.64;60.76;100276.50;105470;1257;162985;-47
2023/07/04 07:32:07;;;;;;;7.60;4.40;;;;;;;20.70;59.97;100274.94;105638;1255;83089;-47
2023/07/04 07:34:36;;;;;;;7.40;4.30;;;;;;;20.69;59.14;100277.33;105469;1254;73341;-48
2023/07/04 07:37:07;;;;;;;6.80;3.60;;;;;;;20.67;58.84;100275.02;105459;1259;70546;-47
2023/07/04 07:39:35;;;;;;;8.60;4.40;;;;;;;20.68;58.68;100273.82;105649;1254;69986;-48
2023/07/04 07:42:04;;;;;;;7.80;4.50;;;;;;;20.74;58.61;100268.08;105559;1256;73051;-47
2023/07/04 07:44:32;;;;;;;6.80;4.40;;;;;;;20.80;58.30;100265.96;105612;1256;82659;-47
2023/07/04 07:47:00;;;;;;;7.90;4.20;;;;;;;20.85;58.25;100260.77;105504;1253;73393;-47
2023/07/04 07:49:29;;;;;;;9.20;4.20;;;;;;;20.93;58.20;100264.55;105550;1254;69983;-47
2023/07/04 07:51:57;;;;;;;7.90;4.30;;;;;;;21.01;58.03;100265.52;105532;1254;69989;-47
2023/07/04 07:54:25;;;;;;;9.20;4.20;;;;;;;21.06;58.03;100263.96;105561;1254;73132;-46
2023/07/04 07:56:54;;;;;;;8.10;4.10;;;;;;;21.13;57.71;100263.25;105578;1254;83653;-47
2023/07/04 07:59:22;;;;;;;10.20;5.40;;;;;;;21.20;57.60;100262.02;105548;1253;72278;-47
2023/07/04 08:01:52;;;;;;;16.20;6.00;;;;;;;21.29;57.92;100260.29;105581;1254;69995;-47
2023/07/04 08:04:20;;;;;;;10.10;5.30;;;;;;;21.43;57.81;100262.36;105557;1254;70532;-47
2023/07/04 08:06:49;;;;;;;7.60;4.70;;;;;;;21.50;57.15;100263.35;105625;1254;73753;-47
2023/07/04 08:09:19;;;;;;;12.50;4.90;;;;;;;21.54;56.88;100260.35;105585;1254;83464;-47
2023/07/04 08:11:48;;;;;;;7.80;4.70;;;;;;;21.62;56.80;100257.88;105565;1254;73532;-47
2023/07/04 08:14:20;;;;;;;8.30;5.10;;;;;;;21.72;56.86;100260.27;105577;1252;70510;-47
2023/07/04 08:16:53;;;;;;;9.20;4.70;;;;;;;21.81;56.45;100261.27;105625;1257;69985;-47
2023/07/04 08:19:23;;;;;;;13.80;5.00;;;;;;;21.87;56.33;100265.87;105608;1254;73770;-49
2023/07/04 08:21:53;;;;;;;;;;;;;;;21.97;56.19;100269.60;105591;1256;83404;-47
2023/07/04 08:24:22;;;;;;;8.00;5.50;;;;;;;22.05;55.70;100269.48;105596;1256;73295;-47
2023/07/04 08:26:54;;;;;;;6.70;4.80;;;;;;;22.09;55.20;100269.53;105641;1253;70008;-48
2023/07/04 08:29:22;;;;;;;8.60;5.50;;;;;;;22.08;54.70;100267.65;105541;1256;69938;-46
2023/07/04 08:31:51;;;;;;;7.30;4.90;;;;;;;22.09;54.57;100266.69;105617;1256;72057;-47
2023/07/04 08:34:19;;;;;;;9.30;5.40;;;;;;;22.13;54.71;100268.09;105572;1256;83422;-47
2023/07/04 08:36:48;;;;;;;8.30;5.90;;;;;;;22.20;54.47;100261.26;105645;1252;72756;-47
2023/07/04 08:39:17;;;;;;;10.60;5.80;;;;;;;22.30;54.49;100262.56;105517;1252;69995;-48
2023/07/04 08:42:02;;;;;;;8.00;6.00;;;;;;;22.43;54.51;100267.98;105613;1254;69989;-47
2023/07/04 08:44:44;;;;;;;8.50;5.50;;;;;;;22.54;54.18;100270.04;105474;1259;72789;-45
2023/07/04 08:47:15;;;;;;;11.60;6.00;;;;;;;22.65;53.89;100271.83;105606;1254;82712;-46
2023/07/04 08:50:11;;;;;;;12.50;6.90;;;;;;;22.80;53.75;100270.67;105458;1259;72649;-45
2023/07/04 08:53:17;;;;;;;10.90;7.60;;;;;;;22.97;53.33;100270.55;105623;1253;69979;-45
2023/07/04 08:55:54;;;;;;;11.30;6.90;;;;;;;23.07;52.10;100275.24;105529;1252;69898;-47
2023/07/04 08:58:25;;;;;;;13.80;7.10;;;;;;;23.04;51.53;100270.13;105611;1254;74065;-47
2023/07/04 09:00:55;;;;;;;9.90;6.90;;;;;;;23.03;51.22;100270.61;105555;1256;83317;-46
2023/07/04 09:03:26;;;;;;;14.90;7.00;;;;;;;23.07;51.02;100269.54;105570;1255;73080;-46
2023/07/04 09:06:27;;;;;;;12.10;7.40;;;;;;;23.12;50.00;100272.27;105579;1254;69897;-48
2023/07/04 09:09:14;;;;;;;13.50;7.20;;;;;;;23.14;49.40;100276.91;105537;1252;69875;-47
2023/07/04 09:11:43;;;;;;;13.00;7.90;;;;;;;23.14;49.08;100273.34;105603;1256;73028;-47
2023/07/04 09:14:15;;;;;;;9.80;6.50;;;;;;;23.22;48.61;100279.36;105456;1255;83243;-46
2023/07/04 09:16:47;;;;;;;13.80;6.50;;;;;;;23.23;48.39;100275.16;105543;1254;73788;-46
2023/07/04 09:19:18;;;;;;;9.20;6.20;;;;;;;23.33;48.92;100271.02;105549;1252;69903;-47
2023/07/04 09:21:47;;;;;;;17.40;6.50;;;;;;;23.43;48.77;100271.15;105609;1254;69901;-47
2023/07/04 09:24:15;;;;;;;8.90;6.20;;;;;;;23.54;48.48;100274.48;105481;1254;74280;-47
2023/07/04 09:26:49;;;;;;;9.70;6.60;;;;;;;23.57;48.11;100267.91;105560;1254;82662;-47
2023/07/04 09:29:20;;;;;;;9.80;6.20;;;;;;;23.70;48.39;100264.80;105567;1254;72375;-48
2023/07/04 09:31:53;;;;;;;10.00;6.20;;;;;;;23.82;48.10;100265.08;105510;1256;69992;-46
2023/07/04 09:34:24;;;;;;;9.30;6.00;;;;;;;23.97;47.60;100274.38;105577;1254;69875;-46
2023/07/04 09:36:54;;;;;;;11.00;6.40;;;;;;;24.01;47.27;100265.04;105597;1254;74190;-47
2023/07/04 09:39:23;;;;;;;10.30;5.90;;;;;;;24.05;47.02;100267.66;105583;1254;83673;-47
2023/07/04 09:41:56;;;;;;;;;;;;;;;24.14;47.20;100276.99;105549;1254;73770;-47
2023/07/04 09:44:44;;;;;;;16.20;5.70;;;;;;;24.23;46.61;100277.51;105523;1254;69994;-47
2023/07/04 09:47:27;;;;;;;41.10;7.70;;;;;;;24.20;46.22;100273.02;105594;1254;70069;-47
2023/07/04 09:50:24;;;;;;;14.90;5.80;;;;;;;24.16;45.81;100278.77;105591;1254;74264;-48
2023/07/04 09:53:09;;;;;;;9.20;6.00;;;;;;;24.14;45.53;100276.61;105572;1254;82585;-47
2023/07/04 09:55:40;;;;;;;6.40;5.10;;;;;;;24.27;45.63;100273.63;105564;1256;72718;-47
2023/07/04 09:58:21;;;;;;;6.60;5.50;;;;;;;24.35;45.21;100276.73;105508;1254;69923;-47
2023/07/04 10:01:08;;;;;;;22.50;6.50;;;;;;;24.43;45.20;100272.27;105558;1254;69950;-48
2023/07/04 10:03:41;;;;;;;17.10;5.60;;;;;;;24.45;44.58;100278.44;105551;1256;74177;-47
2023/07/04 10:06:10;;;;;;;7.60;5.70;;;;;;;24.45;44.50;100274.05;105572;1256;82604;-47
2023/07/04 10:08:53;;;;;;;9.60;5.30;;;;;;;24.46;44.50;100279.94;105597;1254;73559;-47
2023/07/04 10:11:26;;;;;;;9.80;5.70;;;;;;;24.54;44.28;100277.61;105591;1252;69982;-49
2023/07/04 10:14:00;;;;;;;9.40;5.80;;;;;;;24.63;43.82;100280.45;105588;1256;69994;-48
2023/07/04 10:16:28;;;;;;;8.70;5.30;;;;;;;24.50;43.25;100275.61;105581;1256;74370;-47
2023/07/04 10:19:04;;;;;;;11.10;6.20;;;;;;;24.54;43.46;100282.66;105596;1254;82411;-47
2023/07/04 10:21:50;;;;;;;9.90;6.10;;;;;;;24.66;43.28;100278.23;105565;1255;73375;-48
2023/07/04 10:24:21;;;;;;;8.10;5.80;;;;;;;24.83;43.02;100276.38;105301;1255;69982;-47
2023/07/04 10:26:58;;;;;;;14.30;6.70;;;;;;;25.03;42.99;100279.09;105571;1256;69925;-47
2023/07/04 10:29:32;;;;;;;14.40;6.00;;;;;;;25.05;42.35;100269.92;105591;1257;72217;-47
2023/07/04 10:32:06;;;;;;;8.40;6.00;;;;;;;25.03;42.23;100272.59;105570;1255;82608;-46
2023/07/04 10:34:36;;;;;;;9.60;6.80;;;;;;;25.30;42.61;100280.30;105573;1256;73851;-47
2023/07/04 10:37:06;;;;;;;10.00;6.50;;;;;;;25.59;41.85;100278.27;105598;1256;69924;-47
2023/07/04 10:39:37;;;;;;;9.10;6.50;;;;;;;25.84;41.48;100280.16;105586;1253;69973;-47
2023/07/04 10:42:28;;;;;;;8.10;5.50;;;;;;;26.05;41.12;100276.56;105456;1258;74416;-48
2023/07/04 10:44:57;;;;;;;9.20;6.10;;;;;;;26.05;41.01;100279.64;105535;1254;82591;-48
2023/07/04 10:47:30;;;;;;;11.70;6.20;;;;;;;26.20;41.19;100275.56;105533;1257;73444;-47
2023/07/04 10:50:06;;;;;;;11.80;7.00;;;;;;;26.60;41.46;100283.40;105560;1254;69953;-47
2023/07/04 10:52:36;;;;;;;9.50;7.00;;;;;;;26.81;39.68;100287.23;105572;1256;69998;-47
2023/07/04 10:55:06;;;;;;;10.10;7.10;;;;;;;26.90;39.11;100290.67;105557;1256;73495;-47
2023/07/04 10:57:35;;;;;;;9.50;7.20;;;;;;;27.02;38.58;100282.05;105556;1256;83397;-46
2023/07/04 11:00:22;;;;;;;11.60;6.60;;;;;;;26.91;38.31;100281.80;105593;1253;73653;-46
2023/07/04 11:03:05;;;;;;;8.30;6.10;;;;;;;27.02;38.73;100279.00;105534;1252;69893;-47
2023/07/04 11:05:43;;;;;;;12.50;7.00;;;;;;;27.39;38.48;100279.09;105567;1252;70007;-47
2023/07/04 11:08:20;;;;;;;8.60;6.40;;;;;;;27.70;37.70;100284.89;105599;1255;74247;-48
2023/07/04 11:10:58;;;;;;;10.80;6.90;;;;;;;27.77;37.27;100284.27;105485;1252;82524;-48
2023/07/04 11:13:27;;;;;;;8.20;6.20;;;;;;;28.00;36.79;100271.25;105560;1254;74007;-48
2023/07/04 11:16:03;;;;;;;13.90;5.80;;;;;;;28.18;36.65;100274.62;105575;1256;69963;-48
2023/07/04 11:18:34;;;;;;;15.70;6.60;;;;;;;28.29;36.25;100273.09;105631;1256;69970;-48
2023/07/04 11:21:12;;;;;;;8.60;6.10;;;;;;;28.50;36.40;100280.87;105484;1260;73064;-49
2023/07/04 11:23:55;;;;;;;7.40;6.10;;;;;;;28.71;35.96;100277.02;105543;1254;82940;-49
2023/07/04 11:26:56;;;;;;;8.70;6.70;;;;;;;29.12;35.82;100279.38;105474;1254;72674;-50
2023/07/04 11:29:24;;;;;;;10.80;7.60;;;;;;;28.88;34.81;100275.93;105271;1253;69966;-49
2023/07/04 11:32:02;;;;;;;8.70;7.40;;;;;;;28.78;34.52;100275.70;105571;1257;69961;-49
2023/07/04 11:34:50;;;;;;;15.30;8.10;;;;;;;28.78;34.34;100273.00;105567;1254;74050;-48